Main page
METAR-TAF:

METAR-TAF

Airports :

Benbecula, Scotland

Benbecula Airport

latitude: 57-28N, longitude: 007-22W, elevation: 6 m

Current weather observation

The report was made 13 hours and 40 minutes ago, at 12:50 UTC
Wind 4 kt from the South
Temperature 4°C
Humidity 93%
Pressure 1016 hPa
Visibility 10 km or more
Few clouds at a height of 2000 ft

METAR: EGPL 161250Z 19004KT 9999 FEW020 04/03 Q1016

Time: 02:30 (02:30 UTC)

Forecast

The report was made 15 hours and 32 minutes ago, at 10:58 UTC
Forecast valid from 16 at 12 UTC to 16 at 15 UTC
Wind 7 kt from the Northwest
Visibility 10 km or more
Few clouds at a height of 1400 ft
Probability 40% :
Temporary
from 16 at 12 UTC to 16 at 15 UTC
Visibility: 7000 m
Broken clouds at a height of 1200 ft
rain showers

TAF: EGPL 161058Z 1612/1615 31007KT 9999 FEW014 PROB40 TEMPO 1612/1615 7000 SHRA BKN012

Weather observations and forecasts of more than 4000 airports (METAR and TAF reports).

The available stations are represented by yellow and red dots on the map.

Hover mouse over dot to see the name of the station.

Then click to see weather observations and forecasts.

To change the map : click on the green buttons with a black cross to zoom in, on the green button with a dash to zoom out, or on the green arrows for adjacent maps.


METAR-TAF: